Time;durP1;ratioP1;P1;durP2;ratioP2;P2;SDS_P1;SDS_P2;PMS_P1;PMS_P2;Temp;Humidity;BMP_temperature;BMP_pressure;BME280_temperature;BME280_humidity;BME280_pressure;Samples;Min_cycle;Max_cycle;Signal;HPM_P1;HPM_P2
2022/09/14 00:01:12;;;;;;;;;9.33;9.00;;;;;;;;5100565;27;64980;-80
2022/09/14 00:03:37;;;;;;;;;13.00;11.50;;;;;;;;5102394;27;62007;-80
2022/09/14 00:06:13;;;;;;;;;13.25;11.75;;;;;;;;5102916;27;61765;-80
2022/09/14 00:08:38;;;;;;;;;9.75;9.50;;;;;;;;5101467;27;61828;-80
2022/09/14 00:11:05;;;;;;;;;13.75;12.50;;;;;;;;5101865;27;61926;-80
2022/09/14 00:13:30;;;;;;;;;12.00;9.75;;;;;;;;5100711;27;61776;-80
2022/09/14 00:15:55;;;;;;;;;10.50;10.00;;;;;;;;5101376;27;62715;-80
2022/09/14 00:18:21;;;;;;;;;12.25;11.00;;;;;;;;5103275;27;61859;-80
2022/09/14 00:20:46;;;;;;;;;16.00;12.75;;;;;;;;5101785;27;61973;-80
2022/09/14 00:23:11;;;;;;;;;13.00;11.75;;;;;;;;5100711;27;61723;-80
2022/09/14 00:25:36;;;;;;;;;13.00;11.00;;;;;;;;5100620;27;62068;-80
2022/09/14 00:28:02;;;;;;;;;14.00;12.00;;;;;;;;5101363;27;62042;-80
2022/09/14 00:30:27;;;;;;;;;16.00;13.50;;;;;;;;5101768;27;62005;-80
2022/09/14 00:32:53;;;;;;;;;15.75;13.00;;;;;;;;5103061;27;61734;-79
2022/09/14 00:35:18;;;;;;;;;11.00;11.00;;;;;;;;5106091;27;61709;-80
2022/09/14 00:37:43;;;;;;;;;16.00;11.00;;;;;;;;5104724;27;62104;-80
2022/09/14 00:40:11;;;;;;;;;15.50;10.50;;;;;;;;5105172;27;62064;-80
2022/09/14 00:42:36;;;;;;;;;10.50;9.00;;;;;;;;5105506;27;61859;-80
2022/09/14 00:45:10;;;;;;;;;11.67;10.33;;;;;;;;5104727;27;61779;-80
2022/09/14 00:47:36;;;;;;;;;9.50;9.00;;;;;;;;5106065;27;61824;-80
2022/09/14 00:50:02;;;;;;;;;10.25;9.50;;;;;;;;5105213;27;62007;-79
2022/09/14 00:52:29;;;;;;;;;12.75;10.25;;;;;;;;5105748;27;61886;-80
2022/09/14 00:54:59;;;;;;;;;8.33;8.33;;;;;;;;5103967;27;61797;-80
2022/09/14 00:57:26;;;;;;;;;14.50;12.75;;;;;;;;5104433;27;61918;-79
2022/09/14 00:59:52;;;;;;;;;14.00;10.67;;;;;;;;5104950;27;62062;-80
2022/09/14 01:02:20;;;;;;;;;10.00;10.00;;;;;;;;5104005;27;61763;-79
2022/09/14 01:04:46;;;;;;;;;13.00;9.00;;;;;;;;5104232;27;61831;-79
2022/09/14 01:07:21;;;;;;;;;15.50;12.50;;;;;;;;5104289;27;61800;-79
2022/09/14 01:10:05;;;;;;;;;16.00;11.50;;;;;;;;5104488;27;62147;-79
2022/09/14 01:12:49;;;;;;;;;11.00;11.00;;;;;;;;5103932;27;62098;-79
2022/09/14 01:15:19;;;;;;;;;13.00;11.50;;;;;;;;5104105;27;61792;-79
2022/09/14 01:17:52;;;;;;;;;11.25;11.25;;;;;;;;5103961;27;62286;-79
2022/09/14 01:20:21;;;;;;;;;12.67;9.67;;;;;;;;5104669;27;61753;-79
2022/09/14 01:22:52;;;;;;;;;8.00;7.50;;;;;;;;5104790;27;61774;-79
2022/09/14 01:25:24;;;;;;;;;8.00;8.00;;;;;;;;5103318;27;61792;-79
2022/09/14 01:27:50;;;;;;;;;12.50;10.75;;;;;;;;5103638;27;61756;-79
2022/09/14 01:30:22;;;;;;;;;11.00;10.00;;;;;;;;5104478;27;61745;-79
2022/09/14 01:32:58;;;;;;;;;9.67;8.00;;;;;;;;5103279;27;62018;-79
2022/09/14 01:35:24;;;;;;;;;6.50;6.00;;;;;;;;5105300;27;61723;-79
2022/09/14 01:38:04;;;;;;;;;8.33;7.00;;;;;;;;5103501;27;62135;-79
2022/09/14 01:40:38;;;;;;;;;7.67;5.00;;;;;;;;5102843;27;63599;-79
2022/09/14 01:43:22;;;;;;;;;9.25;5.00;;;;;;;;5103350;27;61832;-79
2022/09/14 01:45:59;;;;;;;;;7.33;5.00;;;;;;;;5104520;27;61829;-79
2022/09/14 01:48:41;;;;;;;;;9.00;5.33;;;;;;;;5103685;27;62034;-79
2022/09/14 01:51:10;;;;;;;;;8.33;4.00;;;;;;;;5102947;27;63460;-79
2022/09/14 01:53:37;;;;;;;;;7.00;5.67;;;;;;;;5104055;27;61972;-79
2022/09/14 01:56:06;;;;;;;;;7.00;5.67;;;;;;;;5104057;27;61726;-79
2022/09/14 01:58:37;;;;;;;;;3.33;3.33;;;;;;;;5104845;27;61922;-79
2022/09/14 02:01:05;;;;;;;;;5.33;3.00;;;;;;;;5102152;27;64076;-79
2022/09/14 02:03:32;;;;;;;;;3.00;3.00;;;;;;;;5103197;27;61939;-79
2022/09/14 02:06:08;;;;;;;;;4.00;4.00;;;;;;;;5103176;27;61835;-79
2022/09/14 02:08:33;;;;;;;;;4.00;4.00;;;;;;;;5103119;27;62027;-79
2022/09/14 02:10:59;;;;;;;;;6.00;6.00;;;;;;;;5101683;27;63328;-79
2022/09/14 02:13:25;;;;;;;;;4.33;4.33;;;;;;;;5103111;27;61692;-79
2022/09/14 02:15:50;;;;;;;;;3.00;2.33;;;;;;;;5103186;27;61942;-79
2022/09/14 02:18:16;;;;;;;;;3.00;2.33;;;;;;;;5104448;27;61779;-80
2022/09/14 02:20:55;;;;;;;;;1.33;1.33;;;;;;;;5102429;27;64601;-80
2022/09/14 02:23:22;;;;;;;;;4.00;4.00;;;;;;;;5102507;27;61907;-79
2022/09/14 02:25:47;;;;;;;;;5.00;4.00;;;;;;;;5102484;27;61980;-79
2022/09/14 02:28:12;;;;;;;;;4.00;3.00;;;;;;;;5102972;27;61761;-80
2022/09/14 02:30:46;;;;;;;;;3.00;3.00;;;;;;;;5102171;27;63975;-79
2022/09/14 02:33:12;;;;;;;;;2.67;2.33;;;;;;;;5102660;27;62080;-79
2022/09/14 02:35:40;;;;;;;;;3.67;3.33;;;;;;;;5104217;27;61966;-80
2022/09/14 02:38:11;;;;;;;;;4.00;2.00;;;;;;;;5103965;27;62099;-80
2022/09/14 02:40:40;;;;;;;;;7.33;3.00;;;;;;;;5101364;27;63666;-80
2022/09/14 02:43:26;;;;;;;;;4.00;4.00;;;;;;;;5103602;27;61852;-79
2022/09/14 02:45:52;;;;;;;;;2.00;2.00;;;;;;;;5104343;27;61890;-79
2022/09/14 02:48:17;;;;;;;;;2.00;2.00;;;;;;;;5102365;27;61893;-79
2022/09/14 02:50:47;;;;;;;;;4.00;2.33;;;;;;;;5101760;27;64729;-79
2022/09/14 02:53:23;;;;;;;;;3.00;3.00;;;;;;;;5101339;27;61809;-79
2022/09/14 02:55:54;;;;;;;;;3.00;3.00;;;;;;;;5103073;27;61809;-79
2022/09/14 02:58:20;;;;;;;;;2.00;2.00;;;;;;;;5101693;27;61804;-79
2022/09/14 03:00:46;;;;;;;;;4.33;2.00;;;;;;;;5101662;27;64892;-80
2022/09/14 03:03:13;;;;;;;;;3.00;3.00;;;;;;;;5102020;27;61924;-80
2022/09/14 03:05:38;;;;;;;;;4.33;2.00;;;;;;;;5103788;27;61621;-80
2022/09/14 03:08:04;;;;;;;;;4.00;4.00;;;;;;;;5103199;27;62064;-80
2022/09/14 03:10:30;;;;;;;;;3.00;3.00;;;;;;;;5101255;27;63423;-80
2022/09/14 03:12:56;;;;;;;;;3.67;1.00;;;;;;;;5102139;27;61824;-80
2022/09/14 03:15:21;;;;;;;;;2.67;2.33;;;;;;;;5101943;27;62223;-80
2022/09/14 03:17:47;;;;;;;;;3.00;3.00;;;;;;;;5103822;27;61902;-80
2022/09/14 03:20:23;;;;;;;;;3.00;1.67;;;;;;;;5101316;27;63975;-80
2022/09/14 03:22:48;;;;;;;;;2.67;2.00;;;;;;;;5101338;27;61797;-80
2022/09/14 03:25:14;;;;;;;;;4.00;3.00;;;;;;;;5102517;27;62360;-80
2022/09/14 03:27:39;;;;;;;;;5.00;4.33;;;;;;;;5102151;27;61778;-80
2022/09/14 03:30:05;;;;;;;;;7.00;3.00;;;;;;;;5102806;27;62246;-80
2022/09/14 03:32:31;;;;;;;;;4.33;4.00;;;;;;;;5103064;27;61725;-80
2022/09/14 03:34:56;;;;;;;;;4.67;4.00;;;;;;;;5103284;27;61821;-80
2022/09/14 03:37:22;;;;;;;;;5.00;3.00;;;;;;;;5101433;27;61728;-80
2022/09/14 03:39:47;;;;;;;;;5.00;5.00;;;;;;;;5102509;27;62151;-80
2022/09/14 03:42:12;;;;;;;;;9.00;3.33;;;;;;;;5101485;27;61822;-80
2022/09/14 03:44:38;;;;;;;;;4.00;3.00;;;;;;;;5103206;27;61884;-80
2022/09/14 03:47:03;;;;;;;;;5.00;3.67;;;;;;;;5103550;27;61687;-80
2022/09/14 03:49:28;;;;;;;;;4.67;4.00;;;;;;;;5100740;27;64089;-80
2022/09/14 03:51:53;;;;;;;;;7.00;6.00;;;;;;;;5102747;27;61796;-80
2022/09/14 03:54:19;;;;;;;;;4.00;3.00;;;;;;;;5100608;27;61803;-80
2022/09/14 03:56:44;;;;;;;;;4.00;3.67;;;;;;;;5103084;27;61721;-80
2022/09/14 03:59:09;;;;;;;;;4.00;4.00;;;;;;;;5102600;27;61979;-80
2022/09/14 04:01:36;;;;;;;;;3.00;3.00;;;;;;;;5101051;27;61853;-80
2022/09/14 04:04:01;;;;;;;;;4.00;3.00;;;;;;;;5101332;27;61772;-80
2022/09/14 04:06:27;;;;;;;;;5.33;4.00;;;;;;;;5102772;27;62081;-80
2022/09/14 04:08:54;;;;;;;;;4.00;4.00;;;;;;;;5106847;27;62006;-80
2022/09/14 04:11:20;;;;;;;;;6.67;4.67;;;;;;;;5108923;27;61849;-80
2022/09/14 04:13:46;;;;;;;;;4.33;4.33;;;;;;;;5109277;27;61664;-80
2022/09/14 04:16:12;;;;;;;;;4.33;3.67;;;;;;;;5109427;27;61655;-80
2022/09/14 04:18:37;;;;;;;;;3.00;3.00;;;;;;;;5106655;27;64950;-80
2022/09/14 04:21:05;;;;;;;;;3.33;3.00;;;;;;;;5109130;27;61884;-80
2022/09/14 04:23:30;;;;;;;;;2.33;2.33;;;;;;;;5108357;27;61974;-80
2022/09/14 04:25:55;;;;;;;;;6.67;4.00;;;;;;;;5106606;27;62036;-80
2022/09/14 04:28:21;;;;;;;;;4.33;2.33;;;;;;;;5108557;27;63008;-80
2022/09/14 04:30:55;;;;;;;;;5.00;4.00;;;;;;;;5107954;27;61903;-80
2022/09/14 04:33:21;;;;;;;;;4.00;3.00;;;;;;;;5107645;27;61924;-80
2022/09/14 04:35:54;;;;;;;;;4.00;3.00;;;;;;;;5109104;27;62239;-80
2022/09/14 04:38:20;;;;;;;;;4.00;2.00;;;;;;;;5107347;27;64948;-80
2022/09/14 04:40:45;;;;;;;;;2.33;2.00;;;;;;;;5108702;27;61752;-80
2022/09/14 04:43:10;;;;;;;;;4.00;2.00;;;;;;;;5107979;27;61952;-80
2022/09/14 04:45:35;;;;;;;;;4.00;2.67;;;;;;;;5107729;27;61856;-80
2022/09/14 04:48:01;;;;;;;;;4.00;4.00;;;;;;;;5107324;27;64025;-80
2022/09/14 04:50:26;;;;;;;;;3.00;3.00;;;;;;;;5109016;27;61747;-80
2022/09/14 04:52:52;;;;;;;;;3.00;3.00;;;;;;;;5108923;27;61792;-80
2022/09/14 04:55:22;;;;;;;;;2.67;2.33;;;;;;;;5107188;27;61844;-79
2022/09/14 04:57:49;;;;;;;;;2.67;1.67;;;;;;;;5107184;27;64322;-79
2022/09/14 05:00:15;;;;;;;;;4.00;4.00;;;;;;;;5107606;27;61761;-80
2022/09/14 05:02:40;;;;;;;;;3.00;3.00;;;;;;;;5107088;27;61855;-80
2022/09/14 05:05:06;;;;;;;;;4.00;2.67;;;;;;;;5107722;27;61971;-80
2022/09/14 05:07:31;;;;;;;;;5.00;3.67;;;;;;;;5106754;27;64726;-83
2022/09/14 05:09:56;;;;;;;;;4.00;3.00;;;;;;;;5106801;27;62010;-80
2022/09/14 05:12:22;;;;;;;;;6.00;3.00;;;;;;;;5109117;27;61935;-80
2022/09/14 05:14:47;;;;;;;;;4.67;3.67;;;;;;;;5107279;27;62193;-79
2022/09/14 05:17:13;;;;;;;;;4.67;3.00;;;;;;;;5107017;27;63442;-78
2022/09/14 05:19:38;;;;;;;;;4.33;3.67;;;;;;;;5104401;27;61939;-80
2022/09/14 05:22:03;;;;;;;;;3.33;3.33;;;;;;;;5104743;27;62026;-79
2022/09/14 05:24:29;;;;;;;;;2.67;2.67;;;;;;;;5104811;27;62008;-80
2022/09/14 05:26:54;;;;;;;;;5.33;4.33;;;;;;;;5102431;27;63555;-84
2022/09/14 05:29:19;;;;;;;;;1.67;1.67;;;;;;;;5105252;27;61962;-83
2022/09/14 05:31:45;;;;;;;;;7.00;4.33;;;;;;;;5105085;27;61714;-83
2022/09/14 05:34:10;;;;;;;;;7.67;4.00;;;;;;;;5103506;27;61939;-83
2022/09/14 05:36:36;;;;;;;;;4.67;4.00;;;;;;;;5104425;27;62295;-78
2022/09/14 05:39:02;;;;;;;;;4.33;3.00;;;;;;;;5102428;27;62038;-77
2022/09/14 05:41:27;;;;;;;;;2.67;2.67;;;;;;;;5101842;27;61918;-82
2022/09/14 05:43:53;;;;;;;;;5.00;5.00;;;;;;;;5101288;27;61789;-80
2022/09/14 05:46:19;;;;;;;;;4.00;4.00;;;;;;;;5105567;27;62168;-81
2022/09/14 05:48:45;;;;;;;;;3.50;3.50;;;;;;;;5102004;27;62109;-83
2022/09/14 05:51:12;;;;;;;;;4.33;4.33;;;;;;;;5105114;27;61762;-81
2022/09/14 05:53:38;;;;;;;;;4.67;4.67;;;;;;;;5102834;27;62005;-82
2022/09/14 05:56:08;;;;;;;;;9.33;6.67;;;;;;;;5102233;27;63780;-77
2022/09/14 05:58:35;;;;;;;;;6.67;5.00;;;;;;;;5103270;27;61919;-76
2022/09/14 06:01:11;;;;;;;;;6.00;4.33;;;;;;;;5102887;27;62101;-76
2022/09/14 06:03:37;;;;;;;;;4.67;4.67;;;;;;;;5102226;27;61860;-78
2022/09/14 06:06:03;;;;;;;;;4.00;3.67;;;;;;;;5103285;27;61768;-82
2022/09/14 06:08:29;;;;;;;;;4.33;4.33;;;;;;;;5102653;27;61806;-78
2022/09/14 06:10:54;;;;;;;;;6.00;5.00;;;;;;;;5101593;27;62440;-78
2022/09/14 06:13:21;;;;;;;;;8.00;4.33;;;;;;;;5103879;27;61891;-79
2022/09/14 06:15:47;;;;;;;;;3.00;2.67;;;;;;;;5102881;27;62997;-80
2022/09/14 06:18:12;;;;;;;;;6.00;5.00;;;;;;;;5102264;27;62000;-79
2022/09/14 06:20:37;;;;;;;;;3.00;3.00;;;;;;;;5104467;27;61851;-78
2022/09/14 06:23:02;;;;;;;;;4.00;4.00;;;;;;;;5102471;27;62295;-79
2022/09/14 06:25:28;;;;;;;;;5.00;5.00;;;;;;;;5102082;27;64746;-79
2022/09/14 06:27:53;;;;;;;;;3.67;3.00;;;;;;;;5102788;27;61823;-78
2022/09/14 06:30:19;;;;;;;;;7.00;4.00;;;;;;;;5103793;27;61727;-79
2022/09/14 06:32:44;;;;;;;;;7.00;3.67;;;;;;;;5102035;27;61658;-78
2022/09/14 06:35:09;;;;;;;;;3.00;3.00;;;;;;;;5102619;27;61747;-78
2022/09/14 06:37:35;;;;;;;;;2.33;2.00;;;;;;;;5104205;27;61710;-77
2022/09/14 06:40:00;;;;;;;;;7.00;4.00;;;;;;;;5093757;27;62265;-78
2022/09/14 06:42:27;;;;;;;;;7.00;5.00;;;;;;;;5099361;27;61953;-81
2022/09/14 06:44:53;;;;;;;;;7.67;3.33;;;;;;;;5080680;28;63909;-76
2022/09/14 06:47:18;;;;;;;;;5.33;3.33;;;;;;;;5090311;27;61774;-76
2022/09/14 06:49:43;;;;;;;;;3.33;2.33;;;;;;;;5103859;27;61938;-76
2022/09/14 06:52:08;;;;;;;;;5.67;4.67;;;;;;;;5102092;27;61782;-77
2022/09/14 06:54:34;;;;;;;;;3.67;3.67;;;;;;;;5102079;27;62173;-76
2022/09/14 06:56:59;;;;;;;;;7.33;4.67;;;;;;;;5102179;27;61839;-76
2022/09/14 06:59:24;;;;;;;;;5.00;4.00;;;;;;;;5103230;27;61676;-77
2022/09/14 07:01:50;;;;;;;;;3.00;2.00;;;;;;;;5102290;27;62134;-77
2022/09/14 07:04:15;;;;;;;;;3.33;2.67;;;;;;;;5102151;27;62790;-76
2022/09/14 07:06:42;;;;;;;;;4.00;3.00;;;;;;;;5101887;27;61816;-76
2022/09/14 07:09:08;;;;;;;;;4.67;3.67;;;;;;;;5103544;27;61938;-76
2022/09/14 07:11:34;;;;;;;;;3.67;3.33;;;;;;;;5103395;27;61827;-76
2022/09/14 07:14:00;;;;;;;;;4.67;4.67;;;;;;;;5100929;27;63822;-76
2022/09/14 07:16:26;;;;;;;;;3.67;3.33;;;;;;;;5103596;27;61795;-76
2022/09/14 07:18:52;;;;;;;;;5.00;4.00;;;;;;;;5101964;27;62049;-76
2022/09/14 07:21:19;;;;;;;;;4.00;4.00;;;;;;;;5102997;27;62248;-78
2022/09/14 07:23:45;;;;;;;;;3.33;3.33;;;;;;;;5104199;27;61979;-78
2022/09/14 07:26:12;;;;;;;;;5.00;5.00;;;;;;;;5103074;27;62140;-78
2022/09/14 07:28:38;;;;;;;;;4.00;2.00;;;;;;;;5105007;27;61761;-78
2022/09/14 07:31:04;;;;;;;;;5.00;5.00;;;;;;;;5104448;27;61828;-78
2022/09/14 07:33:29;;;;;;;;;4.00;3.67;;;;;;;;5102291;27;62138;-78
2022/09/14 07:36:03;;;;;;;;;4.67;3.33;;;;;;;;5102834;27;61849;-78
2022/09/14 07:38:28;;;;;;;;;6.67;4.33;;;;;;;;5100203;27;61890;-79
2022/09/14 07:40:56;;;;;;;;;5.33;2.67;;;;;;;;5101373;27;61820;-77
2022/09/14 07:43:22;;;;;;;;;4.00;4.00;;;;;;;;5099898;27;65117;-77
2022/09/14 07:45:47;;;;;;;;;3.67;3.00;;;;;;;;5103106;27;61953;-75
2022/09/14 07:48:12;;;;;;;;;3.00;3.00;;;;;;;;5101162;27;61804;-75
2022/09/14 07:50:38;;;;;;;;;6.67;4.33;;;;;;;;5103044;27;61983;-75
2022/09/14 07:53:04;;;;;;;;;6.00;4.00;;;;;;;;5101616;27;62111;-75
2022/09/14 07:55:29;;;;;;;;;2.00;2.00;;;;;;;;5102082;27;62163;-75
2022/09/14 07:57:54;;;;;;;;;3.33;3.00;;;;;;;;5102719;27;61961;-76
2022/09/14 08:00:20;;;;;;;;;3.67;3.00;;;;;;;;5101297;27;61870;-75
2022/09/14 08:02:51;;;;;;;;;4.33;2.67;;;;;;;;5100653;27;63785;-75
2022/09/14 08:05:16;;;;;;;;;4.00;2.67;;;;;;;;5100909;27;61843;-75
2022/09/14 08:07:41;;;;;;;;;3.67;3.67;;;;;;;;5102459;27;61797;-75
2022/09/14 08:10:07;;;;;;;;;7.67;4.67;;;;;;;;5102378;27;62112;-75
2022/09/14 08:12:32;;;;;;;;;2.33;2.33;;;;;;;;5101783;27;62921;-75
2022/09/14 08:14:57;;;;;;;;;6.33;3.33;;;;;;;;5102496;27;61807;-75
2022/09/14 08:17:22;;;;;;;;;7.33;4.00;;;;;;;;5102340;27;61763;-75
2022/09/14 08:19:48;;;;;;;;;5.33;3.67;;;;;;;;5101322;27;61814;-75
2022/09/14 08:22:13;;;;;;;;;4.33;3.33;;;;;;;;5101630;27;63198;-76
2022/09/14 08:24:39;;;;;;;;;5.00;3.67;;;;;;;;5101296;27;61816;-76
2022/09/14 08:27:04;;;;;;;;;4.67;4.67;;;;;;;;5102102;27;61729;-75
2022/09/14 08:29:35;;;;;;;;;3.00;3.00;;;;;;;;5102316;27;61981;-76
2022/09/14 08:32:03;;;;;;;;;4.33;4.00;;;;;;;;5100207;27;63999;-75
2022/09/14 08:34:29;;;;;;;;;5.33;5.00;;;;;;;;5102071;27;61910;-75
2022/09/14 08:36:54;;;;;;;;;6.33;4.00;;;;;;;;5102335;27;61756;-75
2022/09/14 08:39:20;;;;;;;;;4.00;3.33;;;;;;;;5102360;27;61841;-75
2022/09/14 08:41:50;;;;;;;;;3.00;3.00;;;;;;;;5099290;27;63731;-75
2022/09/14 08:44:19;;;;;;;;;3.67;2.33;;;;;;;;5101683;27;62095;-75
2022/09/14 08:46:48;;;;;;;;;4.33;4.33;;;;;;;;5102000;27;61725;-75
2022/09/14 08:49:19;;;;;;;;;4.33;3.00;;;;;;;;5102293;27;61776;-75
2022/09/14 08:51:44;;;;;;;;;4.33;4.33;;;;;;;;5101359;27;62951;-75
2022/09/14 08:54:10;;;;;;;;;6.00;4.33;;;;;;;;5101220;27;61994;-75
2022/09/14 08:56:38;;;;;;;;;4.00;3.00;;;;;;;;5104869;27;61772;-75
2022/09/14 08:59:04;;;;;;;;;4.33;3.33;;;;;;;;5104442;27;62137;-75
2022/09/14 09:01:35;;;;;;;;;3.00;2.00;;;;;;;;5103448;27;63500;-76
2022/09/14 09:04:00;;;;;;;;;5.00;2.00;;;;;;;;5105066;27;61938;-75
2022/09/14 09:06:32;;;;;;;;;4.00;3.00;;;;;;;;5104254;27;61847;-75
2022/09/14 09:09:16;;;;;;;;;6.00;3.67;;;;;;;;5105097;27;61856;-75
2022/09/14 09:11:43;;;;;;;;;3.67;1.67;;;;;;;;5103688;27;61915;-75
2022/09/14 09:14:29;;;;;;;;;3.33;2.67;;;;;;;;5103295;27;61915;-75
2022/09/14 09:16:56;;;;;;;;;2.00;2.00;;;;;;;;5104263;27;61791;-75
2022/09/14 09:19:24;;;;;;;;;3.33;2.00;;;;;;;;5105251;27;61726;-75
2022/09/14 09:21:50;;;;;;;;;3.00;2.00;;;;;;;;5102676;27;63896;-75
2022/09/14 09:24:16;;;;;;;;;5.00;4.00;;;;;;;;5103956;27;61697;-75
2022/09/14 09:26:41;;;;;;;;;2.67;2.67;;;;;;;;5104763;27;61741;-75
2022/09/14 09:29:08;;;;;;;;;1.00;1.00;;;;;;;;5103956;27;62578;-75
2022/09/14 09:31:44;;;;;;;;;2.67;2.00;;;;;;;;5102941;27;64014;-75
2022/09/14 09:34:12;;;;;;;;;4.33;2.00;;;;;;;;5104265;27;61951;-75
2022/09/14 09:36:39;;;;;;;;;5.67;2.33;;;;;;;;5104701;27;62026;-75
2022/09/14 09:39:04;;;;;;;;;1.33;1.33;;;;;;;;5102592;27;62216;-75
2022/09/14 09:41:34;;;;;;;;;4.00;2.33;;;;;;;;5102156;27;62900;-75
2022/09/14 09:43:59;;;;;;;;;3.00;1.67;;;;;;;;5104151;27;61667;-75
2022/09/14 09:46:26;;;;;;;;;1.00;1.00;;;;;;;;5103569;27;61704;-75
2022/09/14 09:48:51;;;;;;;;;2.00;1.00;;;;;;;;5104840;27;61947;-75
2022/09/14 09:51:25;;;;;;;;;1.33;1.00;;;;;;;;5103634;27;61796;-75
2022/09/14 09:54:02;;;;;;;;;3.67;3.33;;;;;;;;5103501;27;61857;-75
2022/09/14 09:56:30;;;;;;;;;3.00;1.00;;;;;;;;5083934;27;61845;-75
2022/09/14 09:58:56;;;;;;;;;0.67;0.67;;;;;;;;5084130;28;62055;-75
2022/09/14 10:01:21;;;;;;;;;2.33;0.67;;;;;;;;5083430;28;62088;-75
2022/09/14 10:04:06;;;;;;;;;5.33;2.67;;;;;;;;5083406;28;61864;-75
2022/09/14 10:06:39;;;;;;;;;3.67;2.00;;;;;;;;5097651;27;61895;-75
2022/09/14 10:09:12;;;;;;;;;4.00;1.67;;;;;;;;5102932;27;62015;-76
2022/09/14 10:11:37;;;;;;;;;2.67;1.33;;;;;;;;5100319;27;63786;-76
2022/09/14 10:14:04;;;;;;;;;2.00;2.00;;;;;;;;5100907;27;61860;-76
2022/09/14 10:16:37;;;;;;;;;1.00;1.00;;;;;;;;5099700;27;61865;-76
2022/09/14 10:19:11;;;;;;;;;2.00;2.00;;;;;;;;5100382;27;62160;-74
2022/09/14 10:21:56;;;;;;;;;2.00;2.00;;;;;;;;5103386;27;62856;-76
2022/09/14 10:24:22;;;;;;;;;2.67;2.00;;;;;;;;5102044;27;61921;-76
2022/09/14 10:26:47;;;;;;;;;2.67;1.67;;;;;;;;5099979;27;61857;-76
2022/09/14 10:29:22;;;;;;;;;1.00;1.00;;;;;;;;5101711;27;61746;-75
2022/09/14 10:31:48;;;;;;;;;2.00;0.67;;;;;;;;5100744;27;62146;-75
2022/09/14 10:34:18;;;;;;;;;2.67;2.67;;;;;;;;5101113;27;61824;-76
2022/09/14 10:36:49;;;;;;;;;4.33;3.00;;;;;;;;5101652;27;62010;-76
2022/09/14 10:39:19;;;;;;;;;2.00;2.00;;;;;;;;5103949;27;61696;-75
2022/09/14 10:41:52;;;;;;;;;2.00;2.00;;;;;;;;5102846;27;61932;-75
2022/09/14 10:44:20;;;;;;;;;2.00;2.00;;;;;;;;5102430;27;61828;-76
2022/09/14 10:46:54;;;;;;;;;3.33;1.00;;;;;;;;5103313;27;61732;-75
2022/09/14 10:49:30;;;;;;;;;0.67;0.00;;;;;;;;5101579;27;62087;-76
2022/09/14 10:52:02;;;;;;;;;2.00;1.00;;;;;;;;5102599;27;62099;-75
2022/09/14 10:54:30;;;;;;;;;1.00;1.00;;;;;;;;5102486;27;61836;-74
2022/09/14 10:56:55;;;;;;;;;4.00;1.00;;;;;;;;5103582;27;61899;-74
2022/09/14 10:59:21;;;;;;;;;2.00;1.00;;;;;;;;5102652;27;61832;-74
2022/09/14 11:01:52;;;;;;;;;0.67;0.67;;;;;;;;5103319;27;61993;-74
2022/09/14 11:04:36;;;;;;;;;0.33;0.33;;;;;;;;5102360;27;61933;-74
2022/09/14 11:07:11;;;;;;;;;2.00;2.00;;;;;;;;5102241;27;61803;-75
2022/09/14 11:09:55;;;;;;;;;2.00;2.00;;;;;;;;5103728;27;61974;-75
2022/09/14 11:12:29;;;;;;;;;1.00;1.00;;;;;;;;5102881;27;62124;-75
2022/09/14 11:15:13;;;;;;;;;3.00;1.00;;;;;;;;5103656;27;62613;-75
2022/09/14 11:18:04;;;;;;;;;2.67;2.00;;;;;;;;5102649;27;62074;-74
2022/09/14 11:20:37;;;;;;;;;4.00;2.67;;;;;;;;5098515;27;61964;-75
2022/09/14 11:23:13;;;;;;;;;1.00;1.00;;;;;;;;5099006;27;61808;-75
2022/09/14 11:25:46;;;;;;;;;4.00;2.67;;;;;;;;5097721;27;61850;-75
2022/09/14 11:28:21;;;;;;;;;1.33;1.33;;;;;;;;5100236;27;62179;-76
2022/09/14 11:30:49;;;;;;;;;1.00;1.00;;;;;;;;5101644;27;61702;-75
2022/09/14 11:33:26;;;;;;;;;2.33;1.67;;;;;;;;5100638;27;62140;-76
2022/09/14 11:35:56;;;;;;;;;1.33;1.33;;;;;;;;5101278;27;61879;-76
2022/09/14 11:38:26;;;;;;;;;1.00;1.00;;;;;;;;5101677;27;61779;-76
2022/09/14 11:40:52;;;;;;;;;3.00;1.00;;;;;;;;5101397;27;61945;-76
2022/09/14 11:43:21;;;;;;;;;1.67;1.00;;;;;;;;5100812;27;61910;-76
2022/09/14 11:46:06;;;;;;;;;1.00;1.00;;;;;;;;5101458;27;62128;-76
2022/09/14 11:48:52;;;;;;;;;2.00;2.00;;;;;;;;5100775;27;62118;-75
2022/09/14 11:51:21;;;;;;;;;2.00;2.00;;;;;;;;5097215;27;62025;-76
2022/09/14 11:53:46;;;;;;;;;1.00;1.00;;;;;;;;5100058;27;61772;-75
2022/09/14 11:56:25;;;;;;;;;2.33;1.00;;;;;;;;5103688;27;62027;-75
2022/09/14 11:58:53;;;;;;;;;1.00;1.00;;;;;;;;5106716;27;61958;-75
2022/09/14 12:01:26;;;;;;;;;1.00;1.00;;;;;;;;5120104;27;62175;-75
2022/09/14 12:03:52;;;;;;;;;0.33;0.00;;;;;;;;5104859;27;62757;-75
2022/09/14 12:06:29;;;;;;;;;0.00;0.00;;;;;;;;5104537;27;61918;-75
2022/09/14 12:09:15;;;;;;;;;0.33;0.33;;;;;;;;5100467;27;61934;-75
2022/09/14 12:11:45;;;;;;;;;1.33;1.00;;;;;;;;5101183;27;62005;-75
2022/09/14 12:14:22;;;;;;;;;0.67;0.67;;;;;;;;5101550;27;62025;-75
2022/09/14 12:17:06;;;;;;;;;1.00;0.00;;;;;;;;5100850;27;61853;-78
2022/09/14 12:19:33;;;;;;;;;1.33;1.33;;;;;;;;5099976;27;62014;-78
2022/09/14 12:22:17;;;;;;;;;2.00;0.00;;;;;;;;5100786;27;62190;-79
2022/09/14 12:24:43;;;;;;;;;1.00;1.00;;;;;;;;5100181;27;61906;-78
2022/09/14 12:27:20;;;;;;;;;0.00;0.00;;;;;;;;5100874;27;62136;-77
2022/09/14 12:29:46;;;;;;;;;2.00;0.00;;;;;;;;5104442;27;61975;-78
2022/09/14 12:32:31;;;;;;;;;1.00;1.00;;;;;;;;5104661;27;61791;-78
2022/09/14 12:35:16;;;;;;;;;1.67;1.00;;;;;;;;5085118;27;64941;-78
2022/09/14 12:37:41;;;;;;;;;0.67;0.33;;;;;;;;5085266;27;61903;-77
2022/09/14 12:40:18;;;;;;;;;1.00;0.33;;;;;;;;5094496;27;62088;-78
2022/09/14 12:42:44;;;;;;;;;1.00;1.00;;;;;;;;5104127;27;62290;-78
2022/09/14 12:45:28;;;;;;;;;0.67;0.67;;;;;;;;5104900;27;62818;-78
2022/09/14 12:47:53;;;;;;;;;0.00;0.00;;;;;;;;5094629;27;61911;-78
2022/09/14 12:50:19;;;;;;;;;0.33;0.33;;;;;;;;5105361;27;61674;-79
2022/09/14 12:53:12;;;;;;;;;1.00;1.00;;;;;;;;5105498;27;61650;-78
2022/09/14 12:55:56;;;;;;;;;0.00;0.00;;;;;;;;5099707;27;63567;-79
2022/09/14 12:58:40;;;;;;;;;2.00;0.00;;;;;;;;5105566;27;61781;-79
2022/09/14 13:01:20;;;;;;;;;1.00;0.00;;;;;;;;5103948;27;61751;-78
2022/09/14 13:03:49;;;;;;;;;0.00;0.00;;;;;;;;5102429;27;61788;-78
2022/09/14 13:06:14;;;;;;;;;0.00;0.00;;;;;;;;5100668;27;64183;-78
2022/09/14 13:08:44;;;;;;;;;0.00;0.00;;;;;;;;5103500;27;62040;-79
2022/09/14 13:11:16;;;;;;;;;0.00;0.00;;;;;;;;5103974;27;61903;-79
2022/09/14 13:13:42;;;;;;;;;0.33;0.33;;;;;;;;5105437;27;62114;-79
2022/09/14 13:16:07;;;;;;;;;2.00;1.00;;;;;;;;5103326;27;63718;-79
2022/09/14 13:18:34;;;;;;;;;0.00;0.00;;;;;;;;5105212;27;61805;-79
2022/09/14 13:21:02;;;;;;;;;2.00;0.00;;;;;;;;5105112;27;61677;-79
2022/09/14 13:23:30;;;;;;;;;0.00;0.00;;;;;;;;5104741;27;61970;-76
2022/09/14 13:25:57;;;;;;;;;0.00;0.00;;;;;;;;5102828;27;61998;-75
2022/09/14 13:28:25;;;;;;;;;0.00;0.00;;;;;;;;5102326;27;62126;-76
2022/09/14 13:30:54;;;;;;;;;0.00;0.00;;;;;;;;5102693;27;62022;-76
2022/09/14 13:33:20;;;;;;;;;0.67;0.00;;;;;;;;5102586;27;61982;-76
2022/09/14 13:35:50;;;;;;;;;1.00;1.00;;;;;;;;5103002;27;63395;-76
2022/09/14 13:38:21;;;;;;;;;0.00;0.00;;;;;;;;5105318;27;61911;-76
2022/09/14 13:40:48;;;;;;;;;0.00;0.00;;;;;;;;5102012;27;61858;-77
2022/09/14 13:43:15;;;;;;;;;0.00;0.00;;;;;;;;5104048;27;62079;-76
2022/09/14 13:45:41;;;;;;;;;1.00;0.00;;;;;;;;5102772;27;64838;-76
2022/09/14 13:48:06;;;;;;;;;0.00;0.00;;;;;;;;5104883;27;61950;-75
2022/09/14 13:50:32;;;;;;;;;0.67;0.00;;;;;;;;5103672;27;62057;-77
2022/09/14 13:52:57;;;;;;;;;0.00;0.00;;;;;;;;5103650;27;61827;-76
2022/09/14 13:55:27;;;;;;;;;0.00;0.00;;;;;;;;5101959;27;64964;-76
2022/09/14 13:58:10;;;;;;;;;0.00;0.00;;;;;;;;5104737;27;61675;-77
2022/09/14 14:00:47;;;;;;;;;0.00;0.00;;;;;;;;5103490;27;61956;-76
2022/09/14 14:03:19;;;;;;;;;0.00;0.00;;;;;;;;5103637;27;61942;-77
2022/09/14 14:05:45;;;;;;;;;0.00;0.00;;;;;;;;5102616;27;65172;-76
2022/09/14 14:08:36;;;;;;;;;0.00;0.00;;;;;;;;5104356;27;61786;-76
2022/09/14 14:11:03;;;;;;;;;0.00;0.00;;;;;;;;5098573;27;62013;-75
2022/09/14 14:13:31;;;;;;;;;0.00;0.00;;;;;;;;5102996;27;62208;-76
2022/09/14 14:16:32;;;;;;;;;0.00;0.00;;;;;;;;5103788;27;62002;-76
2022/09/14 14:18:57;;;;;;;;;0.00;0.00;;;;;;;;5023838;28;62072;-76
2022/09/14 14:21:28;;;;;;;;;1.00;0.00;;;;;;;;5041257;28;61892;-76
2022/09/14 14:24:13;;;;;;;;;0.00;0.00;;;;;;;;5041066;28;62311;-76
2022/09/14 14:26:38;;;;;;;;;0.00;0.00;;;;;;;;5039912;28;61875;-76
2022/09/14 14:29:09;;;;;;;;;0.00;0.00;;;;;;;;5040527;28;61783;-76
2022/09/14 14:31:34;;;;;;;;;0.00;0.00;;;;;;;;5041155;28;62384;-76
2022/09/14 14:34:00;;;;;;;;;2.00;0.00;;;;;;;;5040611;28;61918;-76
2022/09/14 14:36:25;;;;;;;;;0.00;0.00;;;;;;;;5040425;28;63913;-75
2022/09/14 14:38:50;;;;;;;;;0.00;0.00;;;;;;;;5024185;28;61955;-76
2022/09/14 14:41:20;;;;;;;;;0.67;0.00;;;;;;;;5039694;28;61956;-77
2022/09/14 14:43:46;;;;;;;;;0.67;0.00;;;;;;;;5022697;28;61950;-76
2022/09/14 14:46:12;;;;;;;;;0.00;0.00;;;;;;;;5038572;28;62242;-77
2022/09/14 14:48:38;;;;;;;;;0.33;0.00;;;;;;;;5043618;28;61791;-77
2022/09/14 14:51:04;;;;;;;;;0.33;0.33;;;;;;;;5038517;28;61836;-77